createdAt,value
2023-05-02T00:00:17.240Z,57.10
2023-05-02T00:00:26.640Z,57.10
2023-05-02T00:00:36.031Z,57.20
2023-05-02T00:00:45.453Z,57.20
2023-05-02T00:00:54.855Z,57.20
2023-05-02T00:01:04.219Z,57.10
2023-05-02T00:01:23.027Z,57.10
2023-05-02T00:01:32.401Z,57.20
2023-05-02T00:01:41.838Z,57.20
2023-05-02T00:01:51.237Z,57.10
2023-05-02T00:02:00.646Z,57.10
2023-05-02T00:02:10.091Z,57.10
2023-05-02T00:02:28.916Z,57.10
2023-05-02T00:02:38.338Z,57.10
2023-05-02T00:02:47.657Z,57.10
2023-05-02T00:02:57.191Z,57.10
2023-05-02T00:03:06.574Z,57.10
2023-05-02T00:03:15.958Z,57.10
2023-05-02T00:03:34.786Z,57.10
2023-05-02T00:03:44.218Z,57.10
2023-05-02T00:03:53.542Z,57.10
2023-05-02T00:04:02.943Z,57.10
2023-05-02T00:04:12.400Z,57.10
2023-05-02T00:04:21.733Z,57.10
2023-05-02T00:04:40.523Z,57.10
2023-05-02T00:04:52.837Z,57.10
2023-05-02T00:05:02.245Z,57.10
2023-05-02T00:05:11.618Z,57.10
2023-05-02T00:05:20.997Z,57.10
2023-05-02T00:05:30.391Z,57.00
2023-05-02T00:05:49.162Z,57.00
2023-05-02T00:05:58.587Z,57.10
2023-05-02T00:06:07.956Z,57.10
2023-05-02T00:06:17.391Z,57.10
2023-05-02T00:06:26.774Z,57.10
2023-05-02T00:06:36.267Z,57.20
2023-05-02T00:06:55.057Z,57.20
2023-05-02T00:07:04.387Z,57.20
2023-05-02T00:07:13.768Z,57.20
2023-05-02T00:07:23.152Z,57.10
2023-05-02T00:07:32.523Z,57.10
2023-05-02T00:07:41.927Z,57.10
2023-05-02T00:08:00.772Z,57.10
2023-05-02T00:08:10.191Z,57.10
2023-05-02T00:08:19.584Z,57.10
2023-05-02T00:08:28.987Z,57.10
2023-05-02T00:08:38.387Z,57.20
2023-05-02T00:08:47.806Z,57.30
2023-05-02T00:09:06.600Z,57.20
2023-05-02T00:09:16.003Z,57.20
2023-05-02T00:09:25.398Z,57.30
2023-05-02T00:09:34.784Z,57.30
2023-05-02T00:09:44.167Z,57.30
2023-05-02T00:09:53.573Z,57.30
2023-05-02T00:10:12.337Z,57.40
2023-05-02T00:10:21.724Z,57.30
2023-05-02T00:10:31.139Z,57.30
2023-05-02T00:10:40.523Z,57.40
2023-05-02T00:10:49.919Z,57.40
2023-05-02T00:10:59.311Z,57.40
2023-05-02T00:11:18.110Z,57.50
2023-05-02T00:11:27.517Z,57.50
2023-05-02T00:11:36.889Z,57.50
2023-05-02T00:11:46.275Z,57.50
2023-05-02T00:11:55.661Z,57.50
2023-05-02T00:12:05.054Z,57.50
2023-05-02T00:12:23.829Z,57.50
2023-05-02T00:12:33.265Z,57.50
2023-05-02T00:12:42.709Z,57.50
2023-05-02T00:12:52.025Z,57.50
2023-05-02T00:13:01.457Z,57.60
2023-05-02T00:13:10.858Z,57.50
2023-05-02T00:13:29.656Z,57.50
2023-05-02T00:13:39.054Z,57.50
2023-05-02T00:13:48.442Z,57.60
2023-05-02T00:13:57.821Z,57.60
2023-05-02T00:14:07.270Z,57.60
2023-05-02T00:14:16.679Z,57.60
2023-05-02T00:14:35.465Z,57.60
2023-05-02T00:14:44.855Z,57.60
2023-05-02T00:14:54.240Z,57.70
2023-05-02T00:15:03.640Z,57.60
2023-05-02T00:15:13.009Z,57.70
2023-05-02T00:15:22.399Z,57.70
2023-05-02T00:15:41.223Z,57.70
2023-05-02T00:15:50.626Z,57.80
2023-05-02T00:16:00.034Z,57.70
2023-05-02T00:16:09.414Z,57.80
2023-05-02T00:16:18.819Z,57.80
2023-05-02T00:16:28.229Z,57.80
2023-05-02T00:16:47.068Z,57.80
2023-05-02T00:16:56.477Z,57.80
2023-05-02T00:17:05.868Z,57.80
2023-05-02T00:17:15.265Z,57.80
2023-05-02T00:17:24.772Z,57.80
2023-05-02T00:17:34.071Z,57.80
2023-05-02T00:17:52.888Z,57.80
2023-05-02T00:18:02.373Z,57.80
2023-05-02T00:18:11.689Z,57.80
2023-05-02T00:18:21.024Z,57.90
2023-05-02T00:18:30.416Z,57.80
2023-05-02T00:18:39.796Z,57.80
2023-05-02T00:18:58.590Z,57.90
2023-05-02T00:19:08.043Z,57.90
2023-05-02T00:19:17.415Z,57.90
2023-05-02T00:19:26.834Z,57.90
2023-05-02T00:19:36.253Z,57.90
2023-05-02T00:19:45.637Z,57.90
2023-05-02T00:20:04.510Z,57.90
2023-05-02T00:20:13.890Z,57.90
2023-05-02T00:20:23.275Z,58.00
2023-05-02T00:20:32.672Z,58.00
2023-05-02T00:20:42.155Z,58.00
2023-05-02T00:20:51.492Z,58.00
2023-05-02T00:21:10.243Z,58.10
2023-05-02T00:21:19.641Z,58.10
2023-05-02T00:21:29.054Z,58.20
2023-05-02T00:21:38.514Z,58.30
2023-05-02T00:21:47.900Z,58.30
2023-05-02T00:21:57.315Z,58.40
2023-05-02T00:22:16.126Z,58.50
2023-05-02T00:22:25.524Z,58.60
2023-05-02T00:22:34.924Z,58.70
2023-05-02T00:22:44.358Z,58.80
2023-05-02T00:22:53.754Z,58.90
2023-05-02T00:23:03.168Z,58.90
2023-05-02T00:23:21.958Z,59.10
2023-05-02T00:23:31.340Z,59.10
2023-05-02T00:23:40.762Z,59.20
2023-05-02T00:23:50.168Z,59.20
2023-05-02T00:23:59.533Z,59.30
2023-05-02T00:24:08.955Z,59.50
2023-05-02T00:24:27.770Z,59.60
2023-05-02T00:24:37.188Z,59.70
2023-05-02T00:24:46.589Z,59.80
2023-05-02T00:24:55.986Z,59.80
2023-05-02T00:25:05.391Z,59.80
2023-05-02T00:25:14.778Z,59.90
2023-05-02T00:25:33.572Z,60.10
2023-05-02T00:25:42.964Z,60.20
2023-05-02T00:25:52.363Z,60.40
2023-05-02T00:26:01.762Z,60.60
2023-05-02T00:26:11.180Z,60.60
2023-05-02T00:26:20.537Z,60.70
2023-05-02T00:26:39.326Z,60.80
2023-05-02T00:26:48.729Z,61.00
2023-05-02T00:26:58.138Z,61.10
2023-05-02T00:27:07.519Z,61.20
2023-05-02T00:27:17.006Z,61.40
2023-05-02T00:27:26.403Z,61.40
2023-05-02T00:27:45.203Z,61.60
2023-05-02T00:27:54.595Z,61.70
2023-05-02T00:28:04.037Z,61.70
2023-05-02T00:28:13.425Z,61.70
2023-05-02T00:28:22.823Z,61.90
2023-05-02T00:28:32.246Z,62.00
2023-05-02T00:28:51.105Z,62.20
2023-05-02T00:29:00.514Z,62.20
2023-05-02T00:29:09.912Z,62.40
2023-05-02T00:29:19.338Z,62.50
2023-05-02T00:29:28.787Z,62.60
2023-05-02T00:29:38.188Z,62.70
2023-05-02T00:29:57.158Z,63.00
2023-05-02T00:30:06.393Z,63.00
2023-05-02T00:30:15.807Z,63.10
2023-05-02T00:30:25.217Z,63.10
2023-05-02T00:30:34.593Z,63.20
2023-05-02T00:30:44.048Z,63.30
2023-05-02T00:31:02.920Z,63.50
2023-05-02T00:31:12.247Z,63.60
2023-05-02T00:31:21.627Z,63.60
2023-05-02T00:31:31.043Z,63.60
2023-05-02T00:31:40.543Z,63.60
2023-05-02T00:31:49.811Z,63.70
2023-05-02T00:32:08.612Z,63.80
2023-05-02T00:32:18.011Z,63.80
2023-05-02T00:32:27.445Z,63.90
2023-05-02T00:32:36.827Z,64.10
2023-05-02T00:32:46.265Z,64.00
2023-05-02T00:32:55.615Z,64.00
2023-05-02T00:33:14.448Z,64.00
2023-05-02T00:33:23.774Z,64.10
2023-05-02T00:33:33.196Z,64.10
2023-05-02T00:33:42.594Z,64.10
2023-05-02T00:33:51.986Z,64.20
2023-05-02T00:34:01.429Z,64.30
2023-05-02T00:34:20.239Z,64.50
2023-05-02T00:34:29.670Z,64.40
2023-05-02T00:34:39.091Z,64.50
2023-05-02T00:34:48.493Z,64.50
2023-05-02T00:34:57.894Z,64.50
2023-05-02T00:35:07.275Z,64.50
2023-05-02T00:35:26.067Z,64.70
2023-05-02T00:35:35.481Z,64.80
2023-05-02T00:35:44.865Z,64.80
2023-05-02T00:35:54.276Z,64.70
2023-05-02T00:36:03.706Z,64.70
2023-05-02T00:36:13.134Z,64.80
2023-05-02T00:36:31.933Z,65.00
2023-05-02T00:36:41.352Z,65.00
2023-05-02T00:36:50.754Z,65.10
2023-05-02T00:37:00.157Z,65.10
2023-05-02T00:37:09.552Z,65.10
2023-05-02T00:37:18.977Z,65.20
2023-05-02T00:37:37.796Z,65.20
2023-05-02T00:37:47.212Z,65.30
2023-05-02T00:37:56.597Z,65.30
2023-05-02T00:38:06.003Z,65.40
2023-05-02T00:38:15.381Z,65.50
2023-05-02T00:38:24.788Z,65.50
2023-05-02T00:38:43.631Z,63.80
2023-05-02T00:38:53.068Z,65.50
2023-05-02T00:39:02.446Z,65.50
2023-05-02T00:39:11.849Z,65.60
2023-05-02T00:39:21.255Z,65.70
2023-05-02T00:39:30.707Z,65.80
2023-05-02T00:39:49.543Z,65.80
2023-05-02T00:39:59.321Z,65.90
2023-05-02T00:40:08.418Z,65.90
2023-05-02T00:40:17.775Z,66.00
2023-05-02T00:40:27.156Z,66.00
2023-05-02T00:40:36.579Z,66.10
2023-05-02T00:40:55.387Z,66.10
2023-05-02T00:41:04.813Z,66.20
2023-05-02T00:41:14.196Z,66.10
2023-05-02T00:41:23.606Z,66.20
2023-05-02T00:41:33.033Z,66.40
2023-05-02T00:41:42.418Z,66.30
2023-05-02T00:42:01.203Z,66.30
2023-05-02T00:42:10.590Z,66.20
2023-05-02T00:42:19.987Z,66.30
2023-05-02T00:42:29.374Z,66.20
2023-05-02T00:42:38.755Z,66.30
2023-05-02T00:42:48.194Z,66.30
2023-05-02T00:43:06.992Z,66.50
2023-05-02T00:43:16.410Z,66.50
2023-05-02T00:43:25.806Z,66.60
2023-05-02T00:43:35.196Z,66.60
2023-05-02T00:43:44.592Z,66.70
2023-05-02T00:43:54.002Z,66.70
2023-05-02T00:44:12.839Z,66.70
2023-05-02T00:44:22.222Z,65.00
2023-05-02T00:44:31.691Z,66.70
2023-05-02T00:44:41.095Z,66.70
2023-05-02T00:44:50.487Z,66.70
2023-05-02T00:44:59.906Z,66.90
2023-05-02T00:45:18.723Z,66.90
2023-05-02T00:45:28.112Z,66.90
2023-05-02T00:45:37.545Z,66.90
2023-05-02T00:45:46.934Z,66.80
2023-05-02T00:45:56.384Z,66.80
2023-05-02T00:46:05.780Z,66.80
2023-05-02T00:46:24.562Z,66.70
2023-05-02T00:46:33.946Z,66.70
2023-05-02T00:46:43.433Z,66.70
2023-05-02T00:46:52.912Z,66.70
2023-05-02T00:47:02.117Z,66.70
2023-05-02T00:47:11.521Z,66.70
2023-05-02T00:47:30.437Z,66.70
2023-05-02T00:47:39.734Z,66.70
2023-05-02T00:47:49.171Z,66.70
2023-05-02T00:47:58.573Z,66.70
2023-05-02T00:48:07.989Z,66.80
2023-05-02T00:48:17.347Z,66.80
2023-05-02T00:48:36.261Z,66.90
2023-05-02T00:48:45.632Z,66.90
2023-05-02T00:48:55.039Z,66.90
2023-05-02T00:49:04.412Z,66.90
2023-05-02T00:49:13.816Z,66.90
2023-05-02T00:49:23.224Z,66.90
2023-05-02T00:49:44.570Z,67.00
2023-05-02T00:49:53.972Z,67.10
2023-05-02T00:50:03.493Z,67.10
2023-05-02T00:50:12.828Z,67.10
2023-05-02T00:50:22.238Z,67.10
2023-05-02T00:50:31.638Z,67.10
2023-05-02T00:50:50.444Z,67.20
2023-05-02T00:50:59.957Z,67.20
2023-05-02T00:51:09.358Z,67.30
2023-05-02T00:51:18.764Z,67.40
2023-05-02T00:51:28.159Z,67.30
2023-05-02T00:51:37.608Z,67.40
2023-05-02T00:51:56.416Z,67.50
2023-05-02T00:52:05.820Z,67.60
2023-05-02T00:52:15.246Z,67.60
2023-05-02T00:52:24.649Z,67.60
2023-05-02T00:52:34.035Z,67.70
2023-05-02T00:52:43.418Z,67.60
2023-05-02T00:53:02.220Z,67.50
2023-05-02T00:53:11.627Z,67.50
2023-05-02T00:53:21.026Z,67.50
2023-05-02T00:53:30.425Z,67.50
2023-05-02T00:53:39.815Z,67.70
2023-05-02T00:53:49.235Z,67.60
2023-05-02T00:54:08.011Z,67.50
2023-05-02T00:54:17.405Z,67.60
2023-05-02T00:54:26.813Z,67.70
2023-05-02T00:54:36.222Z,67.70
2023-05-02T00:54:45.638Z,67.70
2023-05-02T00:54:55.048Z,67.70
2023-05-02T00:55:13.815Z,67.70
2023-05-02T00:55:23.222Z,67.70
2023-05-02T00:55:32.591Z,67.70
2023-05-02T00:55:42.013Z,67.80
2023-05-02T00:55:51.436Z,67.80
2023-05-02T00:56:00.820Z,67.90
2023-05-02T00:56:19.679Z,67.90
2023-05-02T00:56:29.072Z,68.00
2023-05-02T00:56:38.465Z,67.90
2023-05-02T00:56:47.870Z,68.00
2023-05-02T00:56:57.272Z,68.00
2023-05-02T00:57:06.677Z,68.00
2023-05-02T00:57:25.438Z,68.10
2023-05-02T00:57:34.852Z,68.10
2023-05-02T00:57:44.246Z,68.10
2023-05-02T00:57:53.631Z,68.10
2023-05-02T00:58:03.057Z,68.20
2023-05-02T00:58:12.446Z,68.10
2023-05-02T00:58:31.258Z,68.10
2023-05-02T00:58:40.643Z,68.10
2023-05-02T00:58:50.041Z,68.10
2023-05-02T00:58:59.439Z,68.00
2023-05-02T00:59:08.827Z,68.10
2023-05-02T00:59:18.226Z,67.90
2023-05-02T00:59:37.104Z,67.80
2023-05-02T00:59:46.481Z,67.70
2023-05-02T00:59:55.868Z,67.70
2023-05-02T01:00:05.306Z,67.70
2023-05-02T01:00:14.699Z,67.60
2023-05-02T01:00:24.120Z,67.50
2023-05-02T01:00:42.933Z,67.30
2023-05-02T01:00:52.316Z,67.10
2023-05-02T01:01:01.709Z,67.10
2023-05-02T01:01:11.158Z,67.00
2023-05-02T01:01:20.519Z,66.90
2023-05-02T01:01:29.984Z,66.80
2023-05-02T01:01:48.793Z,66.60
2023-05-02T01:01:58.114Z,66.50
2023-05-02T01:02:07.688Z,66.40
2023-05-02T01:02:16.901Z,66.30
2023-05-02T01:02:29.129Z,66.20
2023-05-02T01:02:38.503Z,66.00
2023-05-02T01:02:57.266Z,65.80
2023-05-02T01:03:06.664Z,65.60
2023-05-02T01:03:16.141Z,65.50
2023-05-02T01:03:25.466Z,65.50
2023-05-02T01:03:34.916Z,65.30
2023-05-02T01:03:44.265Z,65.20
2023-05-02T01:04:03.106Z,65.10
2023-05-02T01:04:12.412Z,65.00
2023-05-02T01:04:21.775Z,64.90
2023-05-02T01:04:31.130Z,64.80
2023-05-02T01:04:40.531Z,64.70
2023-05-02T01:04:49.958Z,64.70
2023-05-02T01:05:08.733Z,64.50
2023-05-02T01:05:18.120Z,64.40
2023-05-02T01:05:27.507Z,64.30
2023-05-02T01:05:36.888Z,64.30
2023-05-02T01:05:46.300Z,64.30
2023-05-02T01:05:55.685Z,64.20
2023-05-02T01:06:14.518Z,64.00
2023-05-02T01:06:23.874Z,64.00
2023-05-02T01:06:33.354Z,63.90
2023-05-02T01:06:42.797Z,63.90
2023-05-02T01:06:52.174Z,63.80
2023-05-02T01:07:01.452Z,63.80
2023-05-02T01:07:20.224Z,63.60
2023-05-02T01:07:29.656Z,63.60
2023-05-02T01:07:38.985Z,63.50
2023-05-02T01:07:48.371Z,63.50
2023-05-02T01:07:57.808Z,63.50
2023-05-02T01:08:07.198Z,63.30
2023-05-02T01:08:25.984Z,63.20
2023-05-02T01:08:35.334Z,63.10
2023-05-02T01:08:44.711Z,63.20
2023-05-02T01:08:54.150Z,63.10
2023-05-02T01:09:03.566Z,63.10
2023-05-02T01:09:12.947Z,62.90
2023-05-02T01:09:31.763Z,62.80
2023-05-02T01:09:41.218Z,62.80
2023-05-02T01:09:50.612Z,62.70
2023-05-02T01:10:00.311Z,62.70
2023-05-02T01:10:09.498Z,62.70
2023-05-02T01:10:18.884Z,62.60
2023-05-02T01:10:37.675Z,62.60
2023-05-02T01:10:47.058Z,62.60
2023-05-02T01:10:56.452Z,62.60
2023-05-02T01:11:05.874Z,62.50
2023-05-02T01:11:15.275Z,62.50
2023-05-02T01:11:24.698Z,62.50
2023-05-02T01:11:43.480Z,62.40
2023-05-02T01:11:52.888Z,62.50
2023-05-02T01:12:02.272Z,62.50
2023-05-02T01:12:11.715Z,62.50
2023-05-02T01:12:21.093Z,62.50
2023-05-02T01:12:33.313Z,62.50
2023-05-02T01:12:52.098Z,62.40
2023-05-02T01:13:01.530Z,62.50
2023-05-02T01:13:10.935Z,62.40
2023-05-02T01:13:20.296Z,62.40
2023-05-02T01:13:29.693Z,62.40
2023-05-02T01:13:39.082Z,62.40
2023-05-02T01:13:57.854Z,62.40
2023-05-02T01:14:07.241Z,62.40
2023-05-02T01:14:16.670Z,62.40
2023-05-02T01:14:26.040Z,62.40
2023-05-02T01:14:35.433Z,62.40
2023-05-02T01:14:44.849Z,62.40
2023-05-02T01:15:03.638Z,62.30
2023-05-02T01:15:13.032Z,62.40
2023-05-02T01:15:22.422Z,62.40
2023-05-02T01:15:31.816Z,62.40
2023-05-02T01:15:41.400Z,62.40
2023-05-02T01:15:50.851Z,62.30
2023-05-02T01:16:09.639Z,62.40
2023-05-02T01:16:19.034Z,62.40
2023-05-02T01:16:28.399Z,62.40
2023-05-02T01:16:37.955Z,62.40
2023-05-02T01:16:47.140Z,62.40
2023-05-02T01:16:56.538Z,62.30
2023-05-02T01:17:15.336Z,62.30
2023-05-02T01:17:24.836Z,62.30
2023-05-02T01:17:34.147Z,62.30
2023-05-02T01:17:43.526Z,62.30
2023-05-02T01:17:52.977Z,62.30
2023-05-02T01:18:02.297Z,62.30
2023-05-02T01:18:21.118Z,62.30
2023-05-02T01:18:30.526Z,62.30
2023-05-02T01:18:39.913Z,62.20
2023-05-02T01:18:49.321Z,62.10
2023-05-02T01:18:58.727Z,62.20
2023-05-02T01:19:08.110Z,62.20
2023-05-02T01:19:26.912Z,62.20
2023-05-02T01:19:36.300Z,62.10
2023-05-02T01:19:45.710Z,62.20
2023-05-02T01:19:55.116Z,62.20
2023-05-02T01:20:04.540Z,62.20
2023-05-02T01:20:13.944Z,62.30
2023-05-02T01:20:32.742Z,62.30
2023-05-02T01:20:42.140Z,62.30
2023-05-02T01:20:51.565Z,62.30
2023-05-02T01:21:00.961Z,62.30
2023-05-02T01:21:10.365Z,62.20
2023-05-02T01:21:19.750Z,62.20
2023-05-02T01:21:38.506Z,62.30
2023-05-02T01:21:47.968Z,62.40
2023-05-02T01:21:57.371Z,62.40
2023-05-02T01:22:06.790Z,62.40
2023-05-02T01:22:16.197Z,62.40
2023-05-02T01:22:25.603Z,62.40
2023-05-02T01:22:44.512Z,62.40
2023-05-02T01:22:53.896Z,62.40
2023-05-02T01:23:03.297Z,62.50
2023-05-02T01:23:12.705Z,62.60
2023-05-02T01:23:22.095Z,62.70
2023-05-02T01:23:31.590Z,62.80
2023-05-02T01:23:50.384Z,62.80
2023-05-02T01:23:59.778Z,62.80
2023-05-02T01:24:09.213Z,62.90
2023-05-02T01:24:18.574Z,63.00
2023-05-02T01:24:27.972Z,63.10
2023-05-02T01:24:37.374Z,63.10
2023-05-02T01:24:56.285Z,63.30
2023-05-02T01:25:05.692Z,63.30
2023-05-02T01:25:15.105Z,63.40
2023-05-02T01:25:24.506Z,63.50
2023-05-02T01:25:33.919Z,63.50
2023-05-02T01:25:43.353Z,63.50
2023-05-02T01:26:02.181Z,63.80
2023-05-02T01:26:11.589Z,63.90
2023-05-02T01:26:20.990Z,64.00
2023-05-02T01:26:30.386Z,64.10
2023-05-02T01:26:39.796Z,64.20
2023-05-02T01:26:49.172Z,64.30
2023-05-02T01:27:08.235Z,64.60
2023-05-02T01:27:17.669Z,64.80
2023-05-02T01:27:27.084Z,65.00
2023-05-02T01:27:36.473Z,65.00
2023-05-02T01:27:45.909Z,65.10
2023-05-02T01:27:55.313Z,65.40
2023-05-02T01:28:14.184Z,65.50
2023-05-02T01:28:23.580Z,65.70
2023-05-02T01:28:32.998Z,65.90
2023-05-02T01:28:42.404Z,66.10
2023-05-02T01:28:51.812Z,66.10
2023-05-02T01:29:01.241Z,66.30
2023-05-02T01:29:20.013Z,66.60
2023-05-02T01:29:29.439Z,66.80
2023-05-02T01:29:38.820Z,66.80
2023-05-02T01:29:48.230Z,67.00
2023-05-02T01:29:57.727Z,67.10
2023-05-02T01:30:07.025Z,67.20
2023-05-02T01:30:25.847Z,67.30
2023-05-02T01:30:35.238Z,67.40
2023-05-02T01:30:44.644Z,67.50
2023-05-02T01:30:54.051Z,67.70
2023-05-02T01:31:03.465Z,67.90
2023-05-02T01:31:12.852Z,68.00
2023-05-02T01:31:31.677Z,68.10
2023-05-02T01:31:41.108Z,68.10
2023-05-02T01:31:50.572Z,68.30
2023-05-02T01:31:59.959Z,68.50
2023-05-02T01:32:09.385Z,68.60
2023-05-02T01:32:18.676Z,68.70
2023-05-02T01:32:37.587Z,68.80
2023-05-02T01:32:46.974Z,68.80
2023-05-02T01:32:56.342Z,69.00
2023-05-02T01:33:05.788Z,69.10
2023-05-02T01:33:15.165Z,69.20
2023-05-02T01:33:24.515Z,69.20
2023-05-02T01:33:43.302Z,69.50
2023-05-02T01:33:52.693Z,69.70
2023-05-02T01:34:02.093Z,69.80
2023-05-02T01:34:11.501Z,69.80
2023-05-02T01:34:20.881Z,69.80
2023-05-02T01:34:30.288Z,70.00
2023-05-02T01:34:49.092Z,70.20
2023-05-02T01:34:58.536Z,70.40
2023-05-02T01:35:07.909Z,70.60
2023-05-02T01:35:17.369Z,70.80
2023-05-02T01:35:26.713Z,70.80
2023-05-02T01:35:36.109Z,71.00
2023-05-02T01:35:54.945Z,71.20
2023-05-02T01:36:04.377Z,71.30
2023-05-02T01:36:13.776Z,71.50
2023-05-02T01:36:23.170Z,71.60
2023-05-02T01:36:32.582Z,71.50
2023-05-02T01:36:41.945Z,71.60
2023-05-02T01:37:00.719Z,71.80
2023-05-02T01:37:10.124Z,72.00
2023-05-02T01:37:19.513Z,72.00
2023-05-02T01:37:28.915Z,72.10
2023-05-02T01:37:38.300Z,72.20
2023-05-02T01:37:47.686Z,72.10
2023-05-02T01:38:06.537Z,72.10
2023-05-02T01:38:15.928Z,72.10
2023-05-02T01:38:25.327Z,72.00
2023-05-02T01:38:34.727Z,71.90
2023-05-02T01:38:44.135Z,71.90
2023-05-02T01:38:53.521Z,71.90
2023-05-02T01:39:12.294Z,71.90
2023-05-02T01:39:21.700Z,71.80
2023-05-02T01:39:31.091Z,71.70
2023-05-02T01:39:40.474Z,71.70
2023-05-02T01:39:49.899Z,71.70
2023-05-02T01:39:59.543Z,71.70
2023-05-02T01:40:18.124Z,71.50
2023-05-02T01:40:27.463Z,71.50
2023-05-02T01:40:36.841Z,71.40
2023-05-02T01:40:46.254Z,71.40
2023-05-02T01:40:55.646Z,71.30
2023-05-02T01:41:05.043Z,71.30
2023-05-02T01:41:23.819Z,71.30
2023-05-02T01:41:33.286Z,71.20
2023-05-02T01:41:42.708Z,71.00
2023-05-02T01:41:52.137Z,71.00
2023-05-02T01:42:01.549Z,71.00
2023-05-02T01:42:10.941Z,71.00
2023-05-02T01:42:29.727Z,70.90
2023-05-02T01:42:39.122Z,70.80
2023-05-02T01:42:48.534Z,70.70
2023-05-02T01:42:57.939Z,70.60
2023-05-02T01:43:07.338Z,70.60
2023-05-02T01:43:16.737Z,70.50
2023-05-02T01:43:35.515Z,70.30
2023-05-02T01:43:44.904Z,70.20
2023-05-02T01:43:54.296Z,70.10
2023-05-02T01:44:03.704Z,70.10
2023-05-02T01:44:13.094Z,70.10
2023-05-02T01:44:22.485Z,70.00
2023-05-02T01:44:41.237Z,69.80
2023-05-02T01:44:50.710Z,69.70
2023-05-02T01:45:00.133Z,69.70
2023-05-02T01:45:09.485Z,69.70
2023-05-02T01:45:18.873Z,69.50
2023-05-02T01:45:28.249Z,69.50
2023-05-02T01:45:47.026Z,69.40
2023-05-02T01:45:56.409Z,69.40
2023-05-02T01:46:05.780Z,69.40
2023-05-02T01:46:15.221Z,69.40
2023-05-02T01:46:24.582Z,69.30
2023-05-02T01:46:33.971Z,69.20
2023-05-02T01:46:52.771Z,69.10
2023-05-02T01:47:02.141Z,69.10
2023-05-02T01:47:11.581Z,69.10
2023-05-02T01:47:21.014Z,69.10
2023-05-02T01:47:30.449Z,69.10
2023-05-02T01:47:39.833Z,69.00
2023-05-02T01:47:58.713Z,69.00
2023-05-02T01:48:08.062Z,68.90
2023-05-02T01:48:17.366Z,68.80
2023-05-02T01:48:26.762Z,68.80
2023-05-02T01:48:36.175Z,68.80
2023-05-02T01:48:45.609Z,68.70
2023-05-02T01:49:04.381Z,68.70
2023-05-02T01:49:13.767Z,68.70
2023-05-02T01:49:23.164Z,68.70
2023-05-02T01:49:32.547Z,68.70
2023-05-02T01:49:41.935Z,68.70
2023-05-02T01:49:51.517Z,68.70
2023-05-02T01:50:10.343Z,68.70
2023-05-02T01:50:19.691Z,68.70
2023-05-02T01:50:29.067Z,68.70
2023-05-02T01:50:38.458Z,68.70
2023-05-02T01:50:47.861Z,68.60
2023-05-02T01:50:57.246Z,68.60
2023-05-02T01:51:16.039Z,68.50
2023-05-02T01:51:25.421Z,68.50
2023-05-02T01:51:34.839Z,68.50
2023-05-02T01:51:44.240Z,68.50
2023-05-02T01:51:53.647Z,68.30
2023-05-02T01:52:03.036Z,68.40
2023-05-02T01:52:21.818Z,68.30
2023-05-02T01:52:31.203Z,68.40
2023-05-02T01:52:40.593Z,68.40
2023-05-02T01:52:50.004Z,68.40
2023-05-02T01:52:59.364Z,68.30
2023-05-02T01:53:08.747Z,68.30
2023-05-02T01:53:27.536Z,68.30
2023-05-02T01:53:36.965Z,68.30
2023-05-02T01:53:46.337Z,68.20
2023-05-02T01:53:55.743Z,68.30
2023-05-02T01:54:05.134Z,68.30
2023-05-02T01:54:14.560Z,68.30
2023-05-02T01:54:33.349Z,68.40
2023-05-02T01:54:42.741Z,68.40
2023-05-02T01:54:52.173Z,68.30
2023-05-02T01:55:01.563Z,68.40
2023-05-02T01:55:10.949Z,68.50
2023-05-02T01:55:20.352Z,68.40
2023-05-02T01:55:39.173Z,68.50
2023-05-02T01:55:48.567Z,68.50
2023-05-02T01:55:57.950Z,68.60
2023-05-02T01:56:07.345Z,68.60
2023-05-02T01:56:16.742Z,68.70
2023-05-02T01:56:26.126Z,68.60
2023-05-02T01:56:44.922Z,68.60
2023-05-02T01:56:54.309Z,68.60
2023-05-02T01:57:03.703Z,68.60
2023-05-02T01:57:13.079Z,68.60
2023-05-02T01:57:22.448Z,68.60
2023-05-02T01:57:31.835Z,68.60
2023-05-02T01:57:50.602Z,68.70
2023-05-02T01:57:59.995Z,68.70
2023-05-02T01:58:09.386Z,68.80
2023-05-02T01:58:18.780Z,68.70
2023-05-02T01:58:28.182Z,68.80
2023-05-02T01:58:37.650Z,68.80
2023-05-02T01:58:56.428Z,68.90
2023-05-02T01:59:05.830Z,68.90
2023-05-02T01:59:15.212Z,69.00
2023-05-02T01:59:24.619Z,69.00
2023-05-02T01:59:34.027Z,69.00
2023-05-02T01:59:43.425Z,69.00
2023-05-02T02:00:02.625Z,69.00
2023-05-02T02:00:11.706Z,69.00
2023-05-02T02:00:21.028Z,69.00
2023-05-02T02:00:30.436Z,69.10
2023-05-02T02:00:39.927Z,69.00
2023-05-02T02:00:49.319Z,69.00
2023-05-02T02:01:08.129Z,69.10
2023-05-02T02:01:17.579Z,69.00
2023-05-02T02:01:27.004Z,69.10
2023-05-02T02:01:36.462Z,69.10
2023-05-02T02:01:45.730Z,69.10
2023-05-02T02:01:55.196Z,69.20
2023-05-02T02:02:13.987Z,69.30
2023-05-02T02:02:23.389Z,69.40
2023-05-02T02:02:32.788Z,69.40
2023-05-02T02:02:42.198Z,69.40
2023-05-02T02:02:51.642Z,69.30
2023-05-02T02:03:01.104Z,69.60
2023-05-02T02:03:19.929Z,69.80
2023-05-02T02:03:29.331Z,69.80
2023-05-02T02:03:38.872Z,70.10
2023-05-02T02:03:48.134Z,70.20
2023-05-02T02:03:57.533Z,70.30
2023-05-02T02:04:06.946Z,70.50
2023-05-02T02:04:25.800Z,70.60
2023-05-02T02:04:35.177Z,70.70
2023-05-02T02:04:44.598Z,70.80
2023-05-02T02:04:53.955Z,70.90
2023-05-02T02:05:03.356Z,71.20
2023-05-02T02:05:12.731Z,71.40
2023-05-02T02:05:31.537Z,71.40
2023-05-02T02:05:40.949Z,71.60
2023-05-02T02:05:50.354Z,71.80
2023-05-02T02:05:59.793Z,71.80
2023-05-02T02:06:09.205Z,71.90
2023-05-02T02:06:18.572Z,72.00
2023-05-02T02:06:37.351Z,72.50
2023-05-02T02:06:46.742Z,72.70
2023-05-02T02:06:56.088Z,72.80
2023-05-02T02:07:05.510Z,72.90
2023-05-02T02:07:14.868Z,73.10
2023-05-02T02:07:24.289Z,73.20
2023-05-02T02:07:43.116Z,73.60
2023-05-02T02:07:52.527Z,73.70
2023-05-02T02:08:01.935Z,73.90
2023-05-02T02:08:11.361Z,73.90
2023-05-02T02:08:20.742Z,74.10
2023-05-02T02:08:30.157Z,74.30
2023-05-02T02:08:48.949Z,74.40
2023-05-02T02:08:58.350Z,74.60
2023-05-02T02:09:07.750Z,74.80
2023-05-02T02:09:17.184Z,74.80
2023-05-02T02:09:26.572Z,74.80
2023-05-02T02:09:35.961Z,75.00
2023-05-02T02:09:54.784Z,75.10
2023-05-02T02:10:04.182Z,75.40
2023-05-02T02:10:13.589Z,75.60
2023-05-02T02:10:22.980Z,75.60
2023-05-02T02:10:32.377Z,75.70
2023-05-02T02:10:41.759Z,75.80
2023-05-02T02:11:00.578Z,75.80
2023-05-02T02:11:09.956Z,76.00
2023-05-02T02:11:19.368Z,76.00
2023-05-02T02:11:28.788Z,76.10
2023-05-02T02:11:38.179Z,76.30
2023-05-02T02:11:47.588Z,76.40
2023-05-02T02:12:06.379Z,76.60
2023-05-02T02:12:15.785Z,76.80
2023-05-02T02:12:25.209Z,76.90
2023-05-02T02:12:34.608Z,77.00
2023-05-02T02:12:43.996Z,77.20
2023-05-02T02:12:53.381Z,77.20
2023-05-02T02:13:12.188Z,77.20
2023-05-02T02:13:21.796Z,77.40
2023-05-02T02:13:31.187Z,77.40
2023-05-02T02:13:40.594Z,77.40
2023-05-02T02:13:50.006Z,77.60
2023-05-02T02:13:59.404Z,77.70
2023-05-02T02:14:18.211Z,77.80
2023-05-02T02:14:27.634Z,78.00
2023-05-02T02:14:37.071Z,78.20
2023-05-02T02:14:46.474Z,78.00
2023-05-02T02:14:55.884Z,78.20
2023-05-02T02:15:05.286Z,78.10
2023-05-02T02:15:24.093Z,78.40
2023-05-02T02:15:33.492Z,78.50
2023-05-02T02:15:42.916Z,78.60
2023-05-02T02:15:52.289Z,78.50
2023-05-02T02:16:01.703Z,78.70
2023-05-02T02:16:11.108Z,78.70
2023-05-02T02:16:30.036Z,78.70
2023-05-02T02:16:39.401Z,78.90
2023-05-02T02:16:48.869Z,79.00
2023-05-02T02:16:58.284Z,79.10
2023-05-02T02:17:07.836Z,79.10
2023-05-02T02:17:17.041Z,79.10
2023-05-02T02:17:35.869Z,79.30
2023-05-02T02:17:45.323Z,77.70
2023-05-02T02:17:54.703Z,79.60
2023-05-02T02:18:04.082Z,79.80
2023-05-02T02:18:13.521Z,79.80
2023-05-02T02:18:22.840Z,80.00
2023-05-02T02:18:41.653Z,80.20
2023-05-02T02:18:51.069Z,80.40
2023-05-02T02:19:00.504Z,80.30
2023-05-02T02:19:09.916Z,80.40
2023-05-02T02:19:19.315Z,80.60
2023-05-02T02:19:28.734Z,80.80
2023-05-02T02:19:47.597Z,80.80
2023-05-02T02:19:57.473Z,81.00
2023-05-02T02:20:06.668Z,81.10
2023-05-02T02:20:16.039Z,81.20
2023-05-02T02:20:25.471Z,81.30
2023-05-02T02:20:34.851Z,81.20
2023-05-02T02:20:53.709Z,81.50
2023-05-02T02:21:03.116Z,81.40
2023-05-02T02:21:12.542Z,81.40
2023-05-02T02:21:21.962Z,81.60
2023-05-02T02:21:31.377Z,81.80